createdAt,value
2018-05-24T00:01:02.580Z,96.90
2018-05-24T00:03:32.121Z,96.90
2018-05-24T00:06:01.029Z,96.90
2018-05-24T00:08:30.153Z,96.90
2018-05-24T00:10:59.434Z,96.80
2018-05-24T00:13:28.379Z,96.60
2018-05-24T00:15:58.248Z,96.80
2018-05-24T00:18:27.157Z,96.80
2018-05-24T00:20:56.107Z,96.50
2018-05-24T00:23:25.061Z,96.70
2018-05-24T00:25:53.977Z,97.00
2018-05-24T00:28:22.939Z,97.00
2018-05-24T00:30:52.023Z,97.00
2018-05-24T00:33:21.106Z,97.30
2018-05-24T00:35:50.092Z,97.40
2018-05-24T00:38:19.023Z,97.30
2018-05-24T00:40:49.023Z,97.30
2018-05-24T00:43:17.911Z,97.30
2018-05-24T00:45:46.802Z,97.10
2018-05-24T00:48:15.881Z,97.00
2018-05-24T00:50:44.860Z,97.10
2018-05-24T00:53:13.982Z,97.10
2018-05-24T00:55:43.138Z,97.10
2018-05-24T00:58:12.185Z,97.00
2018-05-24T01:00:41.876Z,97.70
2018-05-24T01:03:10.759Z,97.60
2018-05-24T01:05:40.552Z,97.70
2018-05-24T01:08:09.580Z,97.70
2018-05-24T01:10:38.606Z,97.50
2018-05-24T01:13:07.476Z,97.60
2018-05-24T01:15:37.328Z,97.30
2018-05-24T01:18:06.367Z,97.20
2018-05-24T01:20:36.848Z,97.20
2018-05-24T01:23:05.991Z,97.20
2018-05-24T01:25:36.524Z,97.40
2018-05-24T01:28:05.416Z,97.30
2018-05-24T01:30:34.319Z,97.10
2018-05-24T01:33:04.075Z,96.90
2018-05-24T01:35:32.964Z,96.90
2018-05-24T01:38:01.908Z,97.00
2018-05-24T01:40:30.794Z,97.10
2018-05-24T01:42:59.691Z,97.10
2018-05-24T01:45:29.347Z,97.20
2018-05-24T01:47:58.233Z,97.50
2018-05-24T01:50:27.205Z,97.10
2018-05-24T01:52:56.248Z,97.00
2018-05-24T01:55:26.648Z,97.10
2018-05-24T01:57:55.543Z,97.10
2018-05-24T02:00:24.480Z,96.90
2018-05-24T02:02:53.385Z,96.80
2018-05-24T02:05:23.055Z,96.70
2018-05-24T02:07:51.975Z,96.70
2018-05-24T02:10:21.768Z,96.80
2018-05-24T02:12:50.660Z,96.80
2018-05-24T02:15:19.547Z,96.90
2018-05-24T02:17:48.500Z,96.90
2018-05-24T02:20:17.417Z,97.30
2018-05-24T02:22:46.352Z,97.10
2018-05-24T02:25:15.996Z,96.90
2018-05-24T02:27:44.895Z,96.90
2018-05-24T02:30:13.940Z,96.90
2018-05-24T02:32:43.161Z,97.10
2018-05-24T02:35:12.141Z,97.10
2018-05-24T02:37:40.998Z,97.20
2018-05-24T02:40:10.150Z,97.30
2018-05-24T02:42:39.044Z,97.60
2018-05-24T02:45:07.979Z,97.40
2018-05-24T02:47:36.987Z,97.20
2018-05-24T02:50:05.893Z,97.30
2018-05-24T02:52:35.567Z,96.80
2018-05-24T02:55:04.576Z,96.80
2018-05-24T02:57:33.484Z,96.60
2018-05-24T03:00:03.151Z,97.40
2018-05-24T03:02:32.359Z,97.40
2018-05-24T03:05:01.324Z,97.60
2018-05-24T03:07:30.384Z,97.40
2018-05-24T03:10:00.115Z,97.80
2018-05-24T03:12:29.065Z,97.80
2018-05-24T03:14:57.964Z,97.70
2018-05-24T03:17:27.884Z,96.80
2018-05-24T03:19:56.851Z,96.70
2018-05-24T03:22:25.881Z,97.10
2018-05-24T03:24:54.831Z,96.90
2018-05-24T03:27:23.912Z,96.70
2018-05-24T03:29:52.867Z,96.50
2018-05-24T03:32:21.810Z,96.50
2018-05-24T03:34:50.697Z,97.00
2018-05-24T03:37:19.570Z,97.30
2018-05-24T03:39:48.447Z,97.40
2018-05-24T03:42:17.743Z,97.30
2018-05-24T03:44:46.843Z,97.20
2018-05-24T03:47:15.858Z,97.80
2018-05-24T03:49:44.760Z,97.60
2018-05-24T03:52:13.725Z,97.70
2018-05-24T03:54:43.459Z,97.80
2018-05-24T03:57:12.356Z,97.80
2018-05-24T04:03:05.617Z,97.30
2018-05-24T04:05:34.756Z,97.40
2018-05-24T04:08:03.632Z,97.80
2018-05-24T04:10:32.581Z,97.80
2018-05-24T04:13:01.672Z,97.40
2018-05-24T04:15:30.598Z,97.30
2018-05-24T04:17:59.660Z,97.00
2018-05-24T04:20:28.785Z,96.90
2018-05-24T04:22:57.985Z,96.60
2018-05-24T04:25:26.867Z,96.40
2018-05-24T04:27:55.799Z,96.50
2018-05-24T04:30:25.501Z,94.90
2018-05-24T04:32:55.491Z,95.20
2018-05-24T04:35:24.440Z,95.20
2018-05-24T04:37:53.329Z,94.70
2018-05-24T04:40:22.421Z,94.20
2018-05-24T04:42:51.641Z,93.30
2018-05-24T04:45:20.520Z,93.10
2018-05-24T04:47:49.432Z,92.60
2018-05-24T04:50:18.324Z,92.80
2018-05-24T04:52:47.336Z,92.10
2018-05-24T04:55:16.257Z,92.10
2018-05-24T04:57:45.980Z,92.00
2018-05-24T05:00:14.833Z,92.00
2018-05-24T05:02:43.724Z,92.10
2018-05-24T05:05:12.613Z,92.40
2018-05-24T05:07:41.544Z,92.60
2018-05-24T05:10:10.419Z,92.20
2018-05-24T05:12:39.490Z,92.80
2018-05-24T05:15:08.424Z,92.30
2018-05-24T05:17:37.317Z,92.70
2018-05-24T05:20:06.391Z,92.60
2018-05-24T05:22:35.309Z,92.40
2018-05-24T05:25:04.427Z,92.50
2018-05-24T05:27:33.515Z,92.20
2018-05-24T05:30:02.470Z,91.50
2018-05-24T05:32:31.377Z,91.50
2018-05-24T05:35:00.250Z,91.60
2018-05-24T05:37:29.160Z,90.70
2018-05-24T05:39:58.142Z,88.80
2018-05-24T05:42:27.209Z,88.80
2018-05-24T05:44:56.259Z,87.00
2018-05-24T05:47:25.131Z,87.30
2018-05-24T05:49:54.028Z,87.50
2018-05-24T05:52:22.921Z,85.30
2018-05-24T05:54:51.913Z,85.60
2018-05-24T05:57:20.756Z,85.50
2018-05-24T05:59:49.680Z,85.70
2018-05-24T06:02:18.571Z,83.70
2018-05-24T06:04:47.479Z,83.30
2018-05-24T06:07:16.396Z,84.10
2018-05-24T06:09:45.482Z,84.70
2018-05-24T06:12:14.395Z,84.60
2018-05-24T06:14:43.300Z,83.90
2018-05-24T06:17:12.976Z,82.70
2018-05-24T06:19:41.884Z,82.70
2018-05-24T06:22:11.375Z,83.70
2018-05-24T06:24:40.531Z,82.00
2018-05-24T06:27:09.588Z,81.50
2018-05-24T06:29:38.532Z,81.30
2018-05-24T06:32:07.422Z,79.50
2018-05-24T06:34:36.436Z,80.10
2018-05-24T06:37:05.438Z,79.60
2018-05-24T06:39:34.359Z,79.40
2018-05-24T06:42:03.449Z,79.40
2018-05-24T06:44:33.410Z,77.50
2018-05-24T06:47:02.409Z,77.50
2018-05-24T06:49:31.412Z,77.50
2018-05-24T06:52:00.340Z,78.70
2018-05-24T06:54:30.318Z,78.30
2018-05-24T06:56:59.462Z,78.30
2018-05-24T06:59:29.195Z,78.40
2018-05-24T07:01:58.109Z,78.30
2018-05-24T07:04:27.044Z,76.50
2018-05-24T07:06:56.992Z,74.00
2018-05-24T07:09:25.955Z,73.90
2018-05-24T07:11:54.873Z,72.50
2018-05-24T07:14:23.876Z,73.80
2018-05-24T07:16:52.888Z,73.40
2018-05-24T07:19:22.056Z,72.60
2018-05-24T07:21:50.924Z,71.30
2018-05-24T07:24:20.623Z,71.80
2018-05-24T07:26:50.482Z,70.70
2018-05-24T07:29:19.688Z,70.50
2018-05-24T07:31:48.625Z,68.60
2018-05-24T07:34:17.556Z,70.00
2018-05-24T07:36:46.436Z,69.40
2018-05-24T07:39:15.336Z,70.50
2018-05-24T07:41:44.275Z,69.70
2018-05-24T07:44:13.391Z,69.10
2018-05-24T07:46:43.061Z,68.90
2018-05-24T07:49:11.980Z,68.90
2018-05-24T07:51:42.001Z,66.90
2018-05-24T07:54:11.849Z,67.00
2018-05-24T07:56:40.896Z,66.90
2018-05-24T07:59:10.131Z,68.30
2018-05-24T08:01:39.538Z,68.60
2018-05-24T08:04:08.653Z,65.50
2018-05-24T08:06:38.003Z,65.80
2018-05-24T08:09:08.184Z,66.40
2018-05-24T08:11:37.364Z,66.20
2018-05-24T08:14:06.253Z,65.40
2018-05-24T08:16:35.247Z,64.30
2018-05-24T08:19:04.153Z,64.70
2018-05-24T08:21:33.044Z,65.80
2018-05-24T08:24:02.271Z,64.90
2018-05-24T08:26:31.975Z,65.40
2018-05-24T08:29:00.878Z,65.40
2018-05-24T08:31:31.304Z,62.70
2018-05-24T08:34:01.116Z,62.60
2018-05-24T08:36:30.263Z,62.60
2018-05-24T08:38:59.600Z,61.80
2018-05-24T08:41:28.584Z,60.90
2018-05-24T08:43:57.904Z,61.00
2018-05-24T08:46:27.791Z,63.30
2018-05-24T08:48:56.644Z,63.40
2018-05-24T08:51:25.616Z,63.40
2018-05-24T08:53:55.552Z,61.10
2018-05-24T08:56:24.423Z,61.00
2018-05-24T08:58:54.122Z,62.20
2018-05-24T09:01:24.186Z,61.30
2018-05-24T09:03:53.725Z,60.80
2018-05-24T09:06:22.658Z,60.80
2018-05-24T09:08:51.566Z,62.70
2018-05-24T09:11:20.435Z,63.30
2018-05-24T09:13:49.314Z,64.20
2018-05-24T09:16:19.060Z,64.00
2018-05-24T09:18:47.985Z,64.00
2018-05-24T09:21:17.001Z,63.30
2018-05-24T09:23:45.932Z,62.10
2018-05-24T09:26:14.867Z,61.50
2018-05-24T09:28:44.240Z,61.10
2018-05-24T09:31:13.256Z,62.10
2018-05-24T09:33:42.636Z,63.40
2018-05-24T09:36:12.046Z,63.00
2018-05-24T09:38:41.127Z,63.00
2018-05-24T09:41:10.240Z,64.30
2018-05-24T09:43:39.417Z,64.90
2018-05-24T09:46:08.626Z,66.20
2018-05-24T09:48:38.859Z,65.20
2018-05-24T09:51:08.142Z,65.20
2018-05-24T09:53:37.503Z,64.50
2018-05-24T09:56:06.668Z,64.70
2018-05-24T09:58:35.627Z,64.50
2018-05-24T10:01:04.682Z,64.60
2018-05-24T10:03:35.158Z,65.40
2018-05-24T10:06:04.776Z,65.40
2018-05-24T10:08:34.501Z,66.30
2018-05-24T10:11:03.583Z,66.20
2018-05-24T10:13:33.073Z,65.50
2018-05-24T10:16:02.116Z,66.30
2018-05-24T10:18:31.171Z,64.60
2018-05-24T10:21:00.316Z,64.90
2018-05-24T10:23:30.195Z,64.40
2018-05-24T10:25:59.130Z,64.30
2018-05-24T10:28:28.816Z,64.50
2018-05-24T10:30:57.937Z,64.50
2018-05-24T10:33:26.971Z,64.50
2018-05-24T10:35:55.787Z,65.00
2018-05-24T10:38:26.188Z,64.30
2018-05-24T10:40:55.080Z,64.20
2018-05-24T10:43:23.986Z,64.90
2018-05-24T10:45:53.103Z,65.20
2018-05-24T10:48:22.012Z,65.90
2018-05-24T10:50:51.687Z,66.00
2018-05-24T10:53:20.657Z,66.00
2018-05-24T10:55:49.581Z,67.60
2018-05-24T10:58:18.635Z,66.90
2018-05-24T11:00:47.768Z,65.90
2018-05-24T11:03:16.820Z,66.40
2018-05-24T11:05:45.656Z,66.80
2018-05-24T11:08:14.577Z,68.20
2018-05-24T11:10:43.518Z,65.90
2018-05-24T11:13:12.865Z,65.60
2018-05-24T11:15:41.760Z,65.40
2018-05-24T11:18:10.710Z,65.00
2018-05-24T11:20:39.689Z,66.00
2018-05-24T11:23:09.073Z,65.70
2018-05-24T11:25:38.485Z,67.80
2018-05-24T11:28:07.644Z,65.70
2018-05-24T11:30:37.097Z,63.80
2018-05-24T11:33:06.306Z,65.70
2018-05-24T11:35:35.200Z,67.90
2018-05-24T11:38:05.003Z,68.00
2018-05-24T11:40:34.264Z,68.00
2018-05-24T11:43:03.266Z,68.80
2018-05-24T11:45:33.080Z,69.30
2018-05-24T11:48:02.696Z,69.20
2018-05-24T11:50:32.451Z,68.80
2018-05-24T11:53:01.781Z,68.70
2018-05-24T11:55:30.892Z,67.10
2018-05-24T11:58:00.099Z,66.70
2018-05-24T12:00:29.056Z,67.20
2018-05-24T12:02:58.744Z,66.30
2018-05-24T12:05:28.278Z,64.70
2018-05-24T12:07:58.113Z,68.10
2018-05-24T12:10:28.405Z,69.60
2018-05-24T12:12:58.242Z,70.30
2018-05-24T12:15:27.651Z,70.20
2018-05-24T12:17:56.842Z,71.40
2018-05-24T12:20:26.040Z,70.70
2018-05-24T12:22:55.531Z,70.20
2018-05-24T12:25:25.024Z,68.80
2018-05-24T12:27:54.699Z,69.90
2018-05-24T12:30:23.627Z,69.80
2018-05-24T12:32:52.607Z,71.00
2018-05-24T12:35:22.321Z,70.10
2018-05-24T12:37:51.305Z,70.00
2018-05-24T12:40:20.850Z,70.10
2018-05-24T12:42:50.270Z,66.50
2018-05-24T12:45:19.425Z,67.40
2018-05-24T12:47:48.372Z,67.00
2018-05-24T12:50:18.134Z,67.00
2018-05-24T12:52:48.536Z,69.10
2018-05-24T12:55:17.451Z,69.10
2018-05-24T12:57:46.517Z,68.60
2018-05-24T13:00:16.900Z,68.90
2018-05-24T13:02:45.818Z,68.90
2018-05-24T13:05:14.729Z,69.60
2018-05-24T13:07:43.638Z,70.70
2018-05-24T13:10:13.423Z,69.80
2018-05-24T13:12:42.296Z,69.70
2018-05-24T13:15:11.420Z,68.10
2018-05-24T13:17:40.381Z,68.70
2018-05-24T13:20:10.221Z,68.70
2018-05-24T13:22:39.188Z,67.70
2018-05-24T13:25:08.668Z,67.80
2018-05-24T13:27:37.624Z,66.90
2018-05-24T13:30:07.918Z,66.40
2018-05-24T13:32:37.527Z,67.10
2018-05-24T13:35:06.527Z,67.00
2018-05-24T13:37:36.352Z,67.80
2018-05-24T13:40:05.284Z,67.70
2018-05-24T13:42:34.296Z,66.60
2018-05-24T13:45:03.533Z,67.20
2018-05-24T13:47:32.728Z,67.20
2018-05-24T13:50:01.613Z,65.80
2018-05-24T13:52:30.518Z,64.60
2018-05-24T13:55:00.451Z,66.20
2018-05-24T13:57:46.419Z,66.20
2018-05-24T14:00:16.135Z,65.80
2018-05-24T14:02:45.804Z,65.20
2018-05-24T14:05:14.700Z,65.20
2018-05-24T14:07:43.629Z,63.80
2018-05-24T14:10:13.327Z,63.10
2018-05-24T14:12:42.227Z,63.10
2018-05-24T14:15:12.291Z,63.60
2018-05-24T14:17:41.176Z,63.50
2018-05-24T14:20:10.126Z,64.40
2018-05-24T14:22:39.936Z,63.10
2018-05-24T14:25:09.633Z,63.40
2018-05-24T14:27:39.343Z,64.20
2018-05-24T14:30:08.343Z,63.70
2018-05-24T14:32:38.077Z,64.10
2018-05-24T14:35:06.987Z,64.00
2018-05-24T14:37:35.927Z,65.70
2018-05-24T14:40:04.958Z,66.30
2018-05-24T14:42:33.931Z,66.20
2018-05-24T14:45:02.841Z,65.20
2018-05-24T14:47:31.763Z,64.10
2018-05-24T14:50:00.636Z,65.20
2018-05-24T14:52:29.532Z,66.20
2018-05-24T14:54:58.430Z,65.60
2018-05-24T14:57:27.525Z,65.10
2018-05-24T14:59:56.412Z,65.70
2018-05-24T15:02:25.418Z,66.10
2018-05-24T15:04:54.432Z,64.40
2018-05-24T15:07:23.528Z,65.30
2018-05-24T15:09:52.456Z,70.40
2018-05-24T15:12:21.437Z,72.90
2018-05-24T15:14:51.136Z,77.90
2018-05-24T15:17:20.818Z,78.20
2018-05-24T15:19:49.892Z,78.00
2018-05-24T15:22:19.108Z,79.10
2018-05-24T15:24:48.020Z,80.40
2018-05-24T15:27:17.003Z,81.20
2018-05-24T15:29:46.734Z,80.30
2018-05-24T15:32:16.417Z,80.20
2018-05-24T15:34:45.542Z,80.10
2018-05-24T15:37:15.242Z,77.60
2018-05-24T15:39:44.974Z,77.60
2018-05-24T15:42:14.073Z,77.60
2018-05-24T15:44:43.759Z,82.60
2018-05-24T15:47:13.495Z,84.00
2018-05-24T15:49:42.433Z,84.00
2018-05-24T15:52:11.528Z,84.50
2018-05-24T15:54:40.618Z,85.00
2018-05-24T15:57:09.579Z,84.60
2018-05-24T15:59:38.561Z,85.00
2018-05-24T16:02:07.567Z,85.00
2018-05-24T16:04:36.482Z,85.10
2018-05-24T16:07:05.659Z,85.60
2018-05-24T16:09:34.572Z,86.30
2018-05-24T16:12:03.514Z,86.10
2018-05-24T16:14:33.179Z,85.60
2018-05-24T16:17:02.150Z,85.50
2018-05-24T16:19:31.609Z,85.50
2018-05-24T16:22:01.306Z,86.50
2018-05-24T16:24:30.381Z,86.40
2018-05-24T16:26:59.476Z,88.40
2018-05-24T16:29:28.500Z,90.10
2018-05-24T16:31:57.392Z,90.30
2018-05-24T16:34:27.125Z,91.60
2018-05-24T16:36:56.061Z,91.30
2018-05-24T16:39:25.082Z,92.10
2018-05-24T16:41:55.070Z,90.30
2018-05-24T16:44:24.243Z,90.30
2018-05-24T16:46:53.237Z,90.30
2018-05-24T16:49:22.531Z,89.30
2018-05-24T16:51:51.457Z,90.80
2018-05-24T16:54:20.405Z,90.50
2018-05-24T16:56:50.112Z,88.30
2018-05-24T16:59:19.108Z,88.30
2018-05-24T17:01:48.135Z,87.70
2018-05-24T17:04:17.201Z,90.10
2018-05-24T17:06:46.120Z,90.60
2018-05-24T17:09:15.917Z,90.50
2018-05-24T17:11:44.859Z,90.50
2018-05-24T17:14:13.793Z,91.00
2018-05-24T17:16:42.788Z,91.20
2018-05-24T17:19:11.797Z,91.50
2018-05-24T17:21:40.728Z,92.40
2018-05-24T17:24:09.693Z,92.40
2018-05-24T17:26:38.617Z,93.00
2018-05-24T17:29:07.640Z,93.30
2018-05-24T17:31:36.605Z,93.10
2018-05-24T17:34:06.362Z,92.30
2018-05-24T17:36:35.761Z,92.30
2018-05-24T17:39:04.838Z,92.40
2018-05-24T17:41:33.771Z,92.70
2018-05-24T17:44:02.961Z,92.70
2018-05-24T17:46:32.028Z,92.10
2018-05-24T17:49:00.943Z,92.20
2018-05-24T17:51:29.960Z,93.20
2018-05-24T17:53:58.974Z,93.50
2018-05-24T17:56:28.698Z,94.40
2018-05-24T17:58:57.733Z,94.40
2018-05-24T18:01:26.965Z,93.50
2018-05-24T18:03:56.206Z,94.00
2018-05-24T18:06:25.145Z,94.10
2018-05-24T18:08:54.203Z,94.20
2018-05-24T18:11:23.156Z,94.40
2018-05-24T18:13:52.155Z,93.70
2018-05-24T18:16:22.152Z,93.50
2018-05-24T18:18:51.083Z,93.50
2018-05-24T18:21:20.036Z,93.30
2018-05-24T18:23:49.008Z,92.90
2018-05-24T18:26:18.384Z,93.00
2018-05-24T18:28:47.275Z,92.60
2018-05-24T18:31:16.227Z,92.20
2018-05-24T18:33:45.896Z,92.30
2018-05-24T18:36:14.827Z,92.30
2018-05-24T18:38:44.945Z,92.30
2018-05-24T18:41:15.056Z,92.50
2018-05-24T18:43:44.753Z,92.80
2018-05-24T18:46:13.674Z,92.70
2018-05-24T18:48:42.643Z,92.90
2018-05-24T18:51:11.608Z,92.70
2018-05-24T18:53:40.584Z,92.80
2018-05-24T18:56:09.514Z,92.90
2018-05-24T18:58:38.381Z,92.80
2018-05-24T19:01:07.405Z,92.40
2018-05-24T19:03:37.365Z,92.30
2018-05-24T19:06:06.368Z,92.30
2018-05-24T19:08:35.485Z,92.50
2018-05-24T19:11:04.558Z,92.40
2018-05-24T19:13:33.657Z,92.90
2018-05-24T19:16:02.568Z,93.10
2018-05-24T19:18:31.490Z,93.30
2018-05-24T19:21:01.195Z,93.40
2018-05-24T19:23:30.144Z,93.40
2018-05-24T19:25:59.492Z,93.60
2018-05-24T19:28:29.241Z,93.40
2018-05-24T19:30:58.188Z,93.40
2018-05-24T19:33:27.929Z,93.20
2018-05-24T19:35:56.922Z,93.20
2018-05-24T19:38:26.201Z,93.40
2018-05-24T19:40:56.064Z,93.30
2018-05-24T19:43:25.083Z,93.30
2018-05-24T19:45:54.029Z,93.30
2018-05-24T19:48:23.209Z,93.40
2018-05-24T19:50:52.901Z,93.10
2018-05-24T19:53:22.624Z,93.20
2018-05-24T19:55:52.349Z,93.20
2018-05-24T19:58:21.310Z,93.20
2018-05-24T20:00:51.628Z,93.00
2018-05-24T20:03:21.313Z,92.90
2018-05-24T20:05:50.222Z,92.80
2018-05-24T20:08:20.501Z,92.70
2018-05-24T20:10:49.636Z,92.70
2018-05-24T20:13:18.616Z,92.50
2018-05-24T20:15:47.787Z,92.70
2018-05-24T20:18:16.786Z,92.40
2018-05-24T20:20:45.821Z,92.50
2018-05-24T20:23:14.759Z,92.60
2018-05-24T20:25:44.721Z,92.70
2018-05-24T20:28:14.503Z,92.80
2018-05-24T20:30:43.438Z,92.80
2018-05-24T20:33:13.125Z,92.80
2018-05-24T20:35:42.744Z,92.80
2018-05-24T20:38:11.660Z,92.60
2018-05-24T20:40:40.723Z,92.30
2018-05-24T20:43:09.658Z,92.30
2018-05-24T20:45:38.757Z,92.30
2018-05-24T20:48:07.796Z,92.80
2018-05-24T20:50:36.976Z,92.50
2018-05-24T20:53:06.222Z,92.80
2018-05-24T20:55:35.668Z,92.60
2018-05-24T20:58:04.977Z,92.30
2018-05-24T21:00:34.228Z,92.20
2018-05-24T21:03:04.074Z,92.30
2018-05-24T21:05:33.411Z,92.30
2018-05-24T21:08:02.468Z,92.20
2018-05-24T21:10:31.733Z,91.90
2018-05-24T21:13:00.980Z,92.10
2018-05-24T21:15:29.861Z,92.20
2018-05-24T21:17:58.797Z,92.40
2018-05-24T21:20:28.408Z,92.20
2018-05-24T21:22:57.396Z,91.90
2018-05-24T21:25:26.756Z,92.40
2018-05-24T21:27:55.947Z,92.30
2018-05-24T21:30:25.083Z,92.30
2018-05-24T21:32:53.947Z,92.40
2018-05-24T21:35:22.888Z,92.30
2018-05-24T21:37:52.234Z,92.30
2018-05-24T21:40:22.074Z,92.10
2018-05-24T21:42:50.996Z,92.10
2018-05-24T21:45:20.646Z,91.90
2018-05-24T21:47:49.618Z,91.90
2018-05-24T21:50:18.509Z,92.10
2018-05-24T21:52:47.820Z,92.00
2018-05-24T21:55:16.870Z,92.00
2018-05-24T21:57:45.939Z,92.40
2018-05-24T22:00:14.839Z,92.50
2018-05-24T22:02:43.782Z,92.20
2018-05-24T22:05:12.752Z,92.40
2018-05-24T22:07:42.079Z,92.60
2018-05-24T22:10:11.048Z,92.80
2018-05-24T22:12:39.937Z,93.10
2018-05-24T22:15:09.602Z,93.40
2018-05-24T22:17:38.654Z,93.40
2018-05-24T22:20:07.650Z,93.10
2018-05-24T22:22:36.544Z,93.40
2018-05-24T22:25:05.555Z,93.50
2018-05-24T22:27:34.531Z,93.60
2018-05-24T22:30:03.701Z,93.70
2018-05-24T22:32:32.678Z,93.50
2018-05-24T22:35:01.912Z,93.70
2018-05-24T22:38:07.068Z,94.00
2018-05-24T22:40:36.378Z,93.50
2018-05-24T22:43:05.669Z,93.20
2018-05-24T22:45:34.670Z,93.00
2018-05-24T22:48:03.553Z,93.80
2018-05-24T22:50:33.263Z,93.90
2018-05-24T22:53:02.280Z,93.50
2018-05-24T22:55:31.209Z,94.00
2018-05-24T22:58:00.077Z,93.80
2018-05-24T23:00:29.025Z,94.00
2018-05-24T23:02:57.916Z,93.80
2018-05-24T23:05:26.908Z,93.20
2018-05-24T23:07:56.221Z,93.30
2018-05-24T23:10:25.121Z,93.00
2018-05-24T23:12:53.996Z,93.10
2018-05-24T23:15:22.888Z,93.40
2018-05-24T23:17:51.775Z,93.40
2018-05-24T23:20:20.632Z,93.60
2018-05-24T23:22:50.275Z,93.40
2018-05-24T23:25:19.221Z,93.40
2018-05-24T23:27:48.088Z,93.70
2018-05-24T23:30:17.119Z,93.60
2018-05-24T23:32:46.069Z,93.40
2018-05-24T23:35:14.943Z,93.10
2018-05-24T23:37:43.889Z,93.40
2018-05-24T23:40:12.745Z,93.60
2018-05-24T23:42:42.418Z,93.40
2018-05-24T23:45:11.628Z,93.40
2018-05-24T23:47:40.664Z,93.90
2018-05-24T23:50:09.645Z,93.90
2018-05-24T23:52:38.678Z,93.70
2018-05-24T23:55:08.519Z,93.80
2018-05-24T23:57:37.432Z,93.80
